Time;durP1;ratioP1;P1;durP2;ratioP2;P2;SDS_P1;SDS_P2;PMS_P1;PMS_P2;Temp;Humidity;BMP_temperature;BMP_pressure;BME280_temperature;BME280_humidity;BME280_pressure;Samples;Min_cycle;Max_cycle;Signal;HPM_P1;HPM_P2
2021/04/04 00:01:31;;;;;;;20.98;12.77;;;7.80;99.90;;;;;;5051213;28;20037;-75
2021/04/04 00:03:57;;;;;;;16.67;10.75;;;7.80;99.90;;;;;;5050327;28;20444;-75
2021/04/04 00:06:22;;;;;;;17.83;12.05;;;7.80;99.90;;;;;;5051716;28;20029;-75
2021/04/04 00:08:48;;;;;;;20.02;11.93;;;7.80;99.90;;;;;;5052190;28;20032;-75
2021/04/04 00:11:15;;;;;;;15.90;10.45;;;7.80;99.90;;;;;;5052999;28;20127;-75
2021/04/04 00:13:41;;;;;;;20.80;11.13;;;7.80;99.90;;;;;;5052949;28;20028;-75
2021/04/04 00:16:07;;;;;;;19.02;11.90;;;7.70;99.90;;;;;;5049883;28;20021;-75
2021/04/04 00:18:33;;;;;;;18.73;11.95;;;7.60;99.90;;;;;;5050592;28;20088;-75
2021/04/04 00:20:59;;;;;;;17.73;11.02;;;7.70;99.90;;;;;;5049775;28;20510;-75
2021/04/04 00:23:25;;;;;;;18.15;12.20;;;7.60;99.90;;;;;;5050219;28;20023;-75
2021/04/04 00:25:51;;;;;;;15.23;11.57;;;7.40;99.90;;;;;;5052023;28;20025;-75
2021/04/04 00:28:17;;;;;;;18.10;11.43;;;7.50;99.90;;;;;;5052402;28;20024;-75
2021/04/04 00:30:43;;;;;;;21.30;11.65;;;7.60;99.90;;;;;;5052834;28;20013;-75
2021/04/04 00:33:08;;;;;;;18.42;11.32;;;7.60;99.90;;;;;;5052680;28;20033;-74
2021/04/04 00:35:34;;;;;;;19.77;11.57;;;7.70;99.90;;;;;;5050334;28;20025;-74
2021/04/04 00:38:01;;;;;;;16.38;10.57;;;7.70;99.90;;;;;;5053552;28;20025;-75
2021/04/04 00:40:32;;;;;;;20.00;11.52;;;7.70;99.90;;;;;;5053248;28;20029;-75
2021/04/04 00:42:57;;;;;;;24.00;12.27;;;7.70;99.90;;;;;;5052791;28;20444;-75
2021/04/04 00:45:26;;;;;;;16.15;11.13;;;7.60;99.90;;;;;;5055194;28;20035;-75
2021/04/04 00:47:52;;;;;;;18.80;11.27;;;7.60;99.90;;;;;;5052502;28;20057;-75
2021/04/04 00:50:22;;;;;;;16.75;11.45;;;7.60;99.90;;;;;;5055160;28;20032;-75
2021/04/04 00:52:48;;;;;;;20.40;12.20;;;7.60;99.90;;;;;;5052639;28;20025;-75
2021/04/04 00:55:15;;;;;;;17.17;11.07;;;7.60;99.90;;;;;;5052723;28;20029;-75
2021/04/04 00:57:44;;;;;;;17.20;10.70;;;7.40;99.90;;;;;;5053717;28;20078;-75
2021/04/04 01:00:12;;;;;;;19.75;11.73;;;7.30;99.90;;;;;;5051377;28;20021;-75
2021/04/04 01:02:39;;;;;;;16.05;10.88;;;7.20;99.90;;;;;;5054383;28;20028;-75
2021/04/04 01:05:07;;;;;;;20.40;11.60;;;7.10;99.90;;;;;;5052656;28;20032;-74
2021/04/04 01:07:34;;;;;;;21.25;11.05;;;7.00;99.90;;;;;;5051260;28;20108;-75
2021/04/04 01:10:04;;;;;;;18.52;11.57;;;6.90;99.90;;;;;;5052256;28;20514;-75
2021/04/04 01:13:11;;;;;;;17.38;11.35;;;7.00;99.90;;;;;;5052093;28;20493;-77
2021/04/04 01:16:15;;;;;;;16.73;10.68;;;6.90;99.90;;;;;;5052213;28;20032;-77
2021/04/04 01:19:01;;;;;;;16.08;10.68;;;6.60;99.90;;;;;;5050729;28;20031;-77
2021/04/04 01:21:40;;;;;;;19.13;11.63;;;6.60;99.90;;;;;;5051265;28;20045;-77
2021/04/04 01:25:00;;;;;;;22.85;11.98;;;6.60;99.90;;;;;;5052195;28;20486;-77
2021/04/04 01:27:47;;;;;;;19.80;12.52;;;6.70;99.90;;;;;;5010699;28;20033;-77
2021/04/04 01:30:14;;;;;;;18.48;12.18;;;6.70;99.90;;;;;;5010604;28;20038;-77
2021/04/04 01:32:47;;;;;;;25.40;12.45;;;6.70;99.90;;;;;;5010178;28;20353;-77
2021/04/04 01:35:17;;;;;;;15.60;11.02;;;6.70;99.90;;;;;;5010250;28;20034;-77
2021/04/04 01:37:45;;;;;;;18.65;11.52;;;6.70;99.90;;;;;;5010560;28;20036;-77
2021/04/04 01:40:14;;;;;;;15.13;10.57;;;6.70;99.90;;;;;;5010604;28;20072;-77
2021/04/04 01:42:43;;;;;;;16.00;10.45;;;6.40;99.90;;;;;;5027562;28;20038;-77
2021/04/04 01:45:10;;;;;;;16.50;10.68;;;6.20;99.90;;;;;;5028219;28;20061;-77
2021/04/04 01:47:37;;;;;;;17.42;11.45;;;6.00;99.90;;;;;;5027310;28;20029;-77
2021/04/04 01:50:06;;;;;;;13.95;11.05;;;6.00;99.90;;;;;;5016866;28;20034;-75
2021/04/04 01:52:32;;;;;;;16.75;11.45;;;6.10;99.90;;;;;;5028160;28;20120;-74
2021/04/04 01:55:00;;;;;;;17.55;10.80;;;6.30;99.90;;;;;;5010243;28;20022;-75
2021/04/04 01:57:28;;;;;;;17.13;11.07;;;6.50;99.90;;;;;;5009215;28;20017;-75
2021/04/04 01:59:54;;;;;;;17.25;10.55;;;6.60;99.90;;;;;;5010077;28;20033;-75
2021/04/04 02:02:20;;;;;;;15.60;9.95;;;6.60;99.90;;;;;;5049397;28;20044;-75
2021/04/04 02:04:48;;;;;;;17.25;10.52;;;6.50;99.90;;;;;;5052128;28;20048;-77
2021/04/04 02:07:15;;;;;;;16.13;10.85;;;6.40;99.90;;;;;;5051612;28;20120;-77
2021/04/04 02:09:43;;;;;;;15.05;10.73;;;6.50;99.90;;;;;;5051218;28;20485;-77
2021/04/04 02:12:11;;;;;;;15.32;10.18;;;6.40;99.90;;;;;;5047763;28;20494;-76
2021/04/04 02:14:38;;;;;;;16.20;9.95;;;6.40;99.90;;;;;;5052124;28;20064;-77
2021/04/04 02:17:05;;;;;;;15.38;10.50;;;6.40;99.90;;;;;;5052611;28;20021;-77
2021/04/04 02:19:32;;;;;;;13.23;10.40;;;6.30;99.90;;;;;;5051081;28;20086;-77
2021/04/04 02:21:59;;;;;;;18.42;10.25;;;6.20;99.90;;;;;;5048912;28;20127;-77
2021/04/04 02:24:28;;;;;;;17.15;10.23;;;6.30;99.90;;;;;;5054034;28;20108;-77
2021/04/04 02:26:54;;;;;;;13.68;9.68;;;6.50;99.90;;;;;;5050513;28;20037;-77
2021/04/04 02:29:21;;;;;;;20.98;10.55;;;6.50;99.90;;;;;;5053589;28;20025;-77
2021/04/04 02:31:53;;;;;;;16.50;9.93;;;6.50;99.90;;;;;;5051305;28;20075;-76
2021/04/04 02:34:22;;;;;;;22.38;10.95;;;6.50;99.90;;;;;;5049594;28;20029;-76
2021/04/04 02:36:49;;;;;;;17.00;9.68;;;6.50;99.90;;;;;;5052106;28;20225;-76
2021/04/04 02:39:29;;;;;;;25.52;10.77;;;6.40;99.90;;;;;;5052772;28;20028;-77
2021/04/04 02:41:57;;;;;;;20.27;10.95;;;6.40;99.90;;;;;;5050530;28;20116;-77
2021/04/04 02:44:26;;;;;;;17.70;11.80;;;6.40;99.90;;;;;;5053653;28;20033;-78
2021/04/04 02:46:55;;;;;;;16.35;9.75;;;6.40;99.90;;;;;;5050510;28;20374;-77
2021/04/04 02:49:28;;;;;;;18.50;10.98;;;6.50;99.90;;;;;;5047313;28;20027;-77
2021/04/04 02:51:56;;;;;;;17.85;9.85;;;6.40;99.90;;;;;;5050403;28;20083;-77
2021/04/04 02:54:26;;;;;;;16.25;9.98;;;6.20;99.90;;;;;;5051960;28;20013;-77
2021/04/04 02:56:56;;;;;;;13.18;9.52;;;6.10;99.90;;;;;;5050171;28;20025;-77
2021/04/04 02:59:34;;;;;;;16.33;10.23;;;5.90;99.90;;;;;;5051935;28;20021;-77
2021/04/04 03:02:02;;;;;;;16.40;9.88;;;5.80;99.90;;;;;;5053288;28;20112;-77
2021/04/04 03:04:36;;;;;;;17.67;9.63;;;5.90;99.90;;;;;;5051816;28;20036;-77
2021/04/04 03:07:03;;;;;;;16.00;9.55;;;5.80;99.90;;;;;;5054601;28;20032;-77
2021/04/04 03:09:31;;;;;;;11.85;9.07;;;5.70;99.90;;;;;;5050099;28;20020;-77
2021/04/04 03:11:58;;;;;;;13.45;9.35;;;5.70;99.90;;;;;;5051382;28;20033;-76
2021/04/04 03:14:24;;;;;;;12.75;9.57;;;5.70;99.90;;;;;;5051346;28;20020;-77
2021/04/04 03:16:51;;;;;;;13.18;8.88;;;5.50;99.90;;;;;;5050445;28;20119;-77
2021/04/04 03:19:20;;;;;;;13.10;9.25;;;5.40;99.90;;;;;;5052582;28;20032;-77
2021/04/04 03:21:47;;;;;;;12.00;9.50;;;5.40;99.90;;;;;;5049886;28;20150;-77
2021/04/04 03:24:15;;;;;;;13.32;8.63;;;5.40;99.90;;;;;;5053891;28;20072;-76
2021/04/04 03:26:43;;;;;;;11.60;8.98;;;5.40;99.90;;;;;;5049999;28;20013;-77
2021/04/04 03:29:10;;;;;;;15.23;9.10;;;5.40;99.90;;;;;;5050391;28;20043;-77
2021/04/04 03:31:37;;;;;;;15.48;9.98;;;5.20;99.90;;;;;;5051397;28;20075;-77
2021/04/04 03:34:03;;;;;;;17.08;8.93;;;5.20;99.90;;;;;;5050127;28;20025;-77
2021/04/04 03:36:30;;;;;;;15.68;11.13;;;5.30;99.90;;;;;;5052331;28;20045;-77
2021/04/04 03:38:57;;;;;;;18.80;9.25;;;5.20;99.90;;;;;;5049769;28;20102;-74
2021/04/04 03:41:28;;;;;;;20.70;11.25;;;5.00;99.90;;;;;;5052805;28;20490;-74
2021/04/04 03:43:54;;;;;;;15.88;10.93;;;5.10;99.90;;;;;;5049689;28;20071;-74
2021/04/04 03:46:25;;;;;;;13.85;9.20;;;5.20;99.90;;;;;;5049893;28;20079;-74
2021/04/04 03:48:53;;;;;;;16.80;10.52;;;5.20;99.90;;;;;;5047445;28;20025;-74
2021/04/04 03:51:23;;;;;;;16.70;10.18;;;5.10;99.90;;;;;;5048541;28;20395;-74
2021/04/04 03:53:50;;;;;;;14.45;9.77;;;4.80;99.90;;;;;;5050587;28;20071;-74
2021/04/04 03:56:35;;;;;;;13.85;9.85;;;4.60;99.90;;;;;;5052044;28;20021;-74
2021/04/04 03:59:05;;;;;;;11.45;8.95;;;4.90;99.90;;;;;;5049917;28;20056;-74
2021/04/04 04:01:34;;;;;;;13.40;9.23;;;5.00;99.90;;;;;;5051528;28;20402;-74
2021/04/04 04:04:01;;;;;;;15.82;9.48;;;4.90;99.90;;;;;;5049791;28;20037;-74
2021/04/04 04:06:29;;;;;;;12.70;8.93;;;4.90;99.90;;;;;;5049739;28;20044;-74
2021/04/04 04:08:56;;;;;;;17.98;9.95;;;4.90;99.90;;;;;;5050765;28;20083;-75
2021/04/04 04:11:23;;;;;;;18.20;10.30;;;4.80;99.90;;;;;;5052212;28;20482;-74
2021/04/04 04:13:49;;;;;;;15.90;10.35;;;4.80;99.90;;;;;;5055612;28;20028;-74
2021/04/04 04:16:16;;;;;;;18.05;9.98;;;4.70;99.90;;;;;;5056441;28;20029;-74
2021/04/04 04:18:44;;;;;;;12.15;8.85;;;4.60;99.90;;;;;;5051830;28;20083;-74
2021/04/04 04:21:14;;;;;;;15.77;9.25;;;4.60;99.90;;;;;;5056896;28;20065;-74
2021/04/04 04:23:41;;;;;;;14.90;9.07;;;4.60;99.90;;;;;;5053015;28;20047;-74
2021/04/04 04:26:12;;;;;;;12.60;8.70;;;4.60;99.90;;;;;;5053957;28;20025;-74
2021/04/04 04:28:40;;;;;;;15.30;8.20;;;4.60;99.90;;;;;;5052960;28;20021;-74
2021/04/04 04:31:23;;;;;;;13.65;9.38;;;4.50;99.90;;;;;;5054950;28;21023;-74
2021/04/04 04:33:53;;;;;;;20.67;10.05;;;4.30;99.90;;;;;;5054647;28;20031;-77
2021/04/04 04:36:20;;;;;;;;;;;4.30;99.90;;;;;;5053662;28;20017;-76
2021/04/04 04:38:48;;;;;;;17.58;9.63;;;4.20;99.90;;;;;;5056291;28;19911;-76
2021/04/04 04:41:15;;;;;;;11.32;9.63;;;4.30;99.90;;;;;;5052376;28;20108;-74
2021/04/04 04:43:44;;;;;;;15.80;10.88;;;4.30;99.90;;;;;;5053202;28;20025;-74
2021/04/04 04:46:13;;;;;;;17.23;9.30;;;4.00;99.90;;;;;;5054146;28;20092;-74
2021/04/04 04:48:40;;;;;;;13.95;8.90;;;3.80;99.90;;;;;;5052717;28;20150;-74
2021/04/04 04:51:06;;;;;;;14.70;9.68;;;3.70;99.90;;;;;;5054812;28;20108;-74
2021/04/04 04:53:32;;;;;;;20.00;11.73;;;3.60;99.90;;;;;;5052795;28;20017;-74
2021/04/04 04:56:03;;;;;;;14.23;9.48;;;3.70;99.90;;;;;;5055181;28;20089;-74
2021/04/04 04:58:30;;;;;;;13.70;10.68;;;3.80;99.90;;;;;;5056499;28;20493;-74
2021/04/04 05:01:05;;;;;;;20.25;10.68;;;3.70;99.90;;;;;;5053409;28;20051;-74
2021/04/04 05:03:30;;;;;;;19.00;10.98;;;3.90;99.90;;;;;;5052627;28;20032;-73
2021/04/04 05:06:07;;;;;;;16.63;9.60;;;4.10;99.90;;;;;;5052771;28;20040;-74
2021/04/04 05:08:34;;;;;;;17.73;10.00;;;4.10;99.90;;;;;;5052010;28;20036;-74
2021/04/04 05:11:04;;;;;;;13.40;8.57;;;4.10;99.90;;;;;;5053124;28;20037;-73
2021/04/04 05:13:31;;;;;;;16.23;9.35;;;4.00;99.90;;;;;;5053558;28;20410;-74
2021/04/04 05:15:58;;;;;;;16.63;10.23;;;3.90;99.90;;;;;;5053218;28;20028;-74
2021/04/04 05:18:24;;;;;;;14.00;9.70;;;4.00;99.90;;;;;;5053807;28;20041;-74
2021/04/04 05:20:50;;;;;;;18.15;10.25;;;4.10;99.90;;;;;;5052580;28;20047;-74
2021/04/04 05:23:23;;;;;;;12.13;7.97;;;4.00;99.90;;;;;;5053282;28;20025;-74
2021/04/04 05:25:50;;;;;;;11.20;8.48;;;3.70;99.90;;;;;;5041777;28;20034;-74
2021/04/04 05:28:17;;;;;;;18.23;9.60;;;3.70;99.90;;;;;;5033574;28;20025;-74
2021/04/04 05:30:43;;;;;;;14.38;8.05;;;3.60;99.90;;;;;;5033387;28;20029;-74
2021/04/04 05:33:08;;;;;;;9.90;7.72;;;3.50;99.90;;;;;;5033165;28;20445;-73
2021/04/04 05:35:40;;;;;;;12.05;8.95;;;3.70;99.90;;;;;;5034895;28;20029;-74
2021/04/04 05:38:10;;;;;;;12.77;9.32;;;3.80;99.90;;;;;;5057380;28;20033;-74
2021/04/04 05:40:37;;;;;;;14.00;8.63;;;3.90;99.90;;;;;;5064641;28;20103;-74
2021/04/04 05:43:11;;;;;;;16.83;10.45;;;3.90;99.90;;;;;;5055796;28;20078;-74
2021/04/04 05:46:02;;;;;;;13.38;9.50;;;3.80;99.90;;;;;;5061351;28;20033;-74
2021/04/04 05:48:45;;;;;;;24.67;10.07;;;3.80;99.90;;;;;;5057041;28;20035;-74
2021/04/04 05:51:29;;;;;;;14.02;10.02;;;3.80;99.90;;;;;;5060091;28;20025;-74
2021/04/04 05:54:28;;;;;;;14.20;9.18;;;3.80;99.90;;;;;;5053829;28;20033;-74
2021/04/04 05:56:58;;;;;;;13.18;8.77;;;3.60;99.90;;;;;;5043541;28;20112;-74
2021/04/04 05:59:24;;;;;;;;;;;3.70;99.90;;;;;;5056320;28;20021;-74
2021/04/04 06:02:10;;;;;;;18.45;10.23;;;3.90;99.90;;;;;;5064623;28;19967;-74
2021/04/04 06:04:41;;;;;;;16.38;10.23;;;3.90;99.90;;;;;;5047612;28;20054;-74
2021/04/04 06:07:25;;;;;;;16.88;7.75;;;4.20;99.90;;;;;;5064279;28;20548;-73
2021/04/04 06:10:03;;;;;;;10.02;8.25;;;4.30;99.90;;;;;;5044115;28;20029;-74
2021/04/04 06:13:10;;;;;;;10.60;8.05;;;4.20;99.90;;;;;;5054505;28;20112;-74
2021/04/04 06:15:58;;;;;;;8.15;6.80;;;4.10;99.90;;;;;;5031563;28;20116;-73
2021/04/04 06:18:50;;;;;;;12.35;7.65;;;4.00;99.90;;;;;;5049104;28;20032;-74
2021/04/04 06:21:27;;;;;;;12.00;7.47;;;4.00;99.90;;;;;;5032617;28;20115;-74
2021/04/04 06:24:15;;;;;;;13.15;8.35;;;4.00;99.90;;;;;;5050793;28;20076;-74
2021/04/04 06:27:09;;;;;;;12.10;8.98;;;4.10;99.90;;;;;;5044894;28;20040;-74
2021/04/04 06:30:01;;;;;;;14.25;9.25;;;4.20;99.90;;;;;;5057422;28;20025;-74
2021/04/04 06:32:40;;;;;;;12.88;9.07;;;4.30;99.90;;;;;;5055670;28;20055;-73
2021/04/04 06:35:26;;;;;;;10.85;8.60;;;4.50;99.90;;;;;;5047587;28;20059;-74
2021/04/04 06:38:02;;;;;;;20.25;12.13;;;4.50;99.90;;;;;;5046190;28;20032;-74
2021/04/04 06:40:38;;;;;;;21.45;12.80;;;4.70;99.90;;;;;;5047762;28;20045;-74
2021/04/04 06:43:41;;;;;;;14.77;10.23;;;5.00;99.90;;;;;;5048521;28;20035;-74
2021/04/04 06:46:24;;;;;;;15.40;10.65;;;5.40;99.90;;;;;;5033526;28;20140;-74
2021/04/04 06:49:15;;;;;;;18.67;12.07;;;5.50;99.90;;;;;;5033846;28;20040;-74
2021/04/04 06:51:53;;;;;;;17.65;10.90;;;5.70;99.90;;;;;;5041343;28;20040;-74
2021/04/04 06:54:52;;;;;;;16.00;11.73;;;5.90;99.90;;;;;;5031715;28;20029;-74
2021/04/04 06:57:43;;;;;;;14.13;9.93;;;6.20;99.90;;;;;;5049554;28;20068;-73
2021/04/04 07:00:37;;;;;;;16.15;10.55;;;6.40;99.90;;;;;;5049544;28;20055;-73
2021/04/04 07:03:13;;;;;;;19.02;10.73;;;6.50;99.90;;;;;;5049617;28;20048;-75
2021/04/04 07:06:05;;;;;;;14.48;10.13;;;6.50;99.90;;;;;;5048976;28;20191;-75
2021/04/04 07:08:57;;;;;;;15.77;10.38;;;6.60;99.90;;;;;;5030921;28;20032;-76
2021/04/04 07:11:47;;;;;;;20.42;9.48;;;6.80;99.90;;;;;;4970586;28;20038;-75
2021/04/04 07:14:57;;;;;;;17.17;8.90;;;6.90;99.90;;;;;;4981405;28;20123;-75
2021/04/04 07:17:48;;;;;;;;;;;7.20;99.90;;;;;;4971104;28;20045;-75
2021/04/04 07:20:40;;;;;;;18.38;9.98;;;7.40;99.90;;;;;;4962585;28;19906;-76
2021/04/04 07:23:33;;;;;;;14.88;8.70;;;7.70;99.90;;;;;;4967627;28;20105;-76
2021/04/04 07:26:25;;;;;;;17.15;9.02;;;8.10;99.90;;;;;;4970701;28;20121;-75
2021/04/04 07:29:15;;;;;;;14.63;8.38;;;8.30;99.90;;;;;;4970227;28;20591;-76
2021/04/04 07:31:48;;;;;;;17.73;8.93;;;8.50;99.90;;;;;;4970289;28;20039;-75
2021/04/04 07:34:26;;;;;;;13.98;8.95;;;8.70;99.90;;;;;;4970135;28;20023;-78
2021/04/04 07:37:15;;;;;;;15.93;9.30;;;8.90;99.90;;;;;;4970434;28;20566;-78
2021/04/04 07:39:55;;;;;;;17.83;9.57;;;9.10;99.90;;;;;;4952205;28;20401;-78
2021/04/04 07:42:33;;;;;;;17.35;7.85;;;9.30;99.90;;;;;;4948720;29;20067;-78
2021/04/04 07:45:18;;;;;;;16.30;8.95;;;9.40;99.90;;;;;;4950441;28;20059;-78
2021/04/04 07:48:12;;;;;;;17.67;9.60;;;9.40;99.60;;;;;;4969263;28;20038;-78
2021/04/04 07:51:03;;;;;;;28.85;9.35;;;9.60;99.90;;;;;;5011480;28;20029;-78
2021/04/04 07:53:53;;;;;;;14.82;7.65;;;9.70;99.40;;;;;;5017769;28;20069;-74
2021/04/04 07:56:45;;;;;;;29.70;10.07;;;9.80;98.00;;;;;;5052402;28;20064;-79
2021/04/04 07:59:38;;;;;;;14.27;8.77;;;10.10;98.70;;;;;;5052682;28;20029;-82
2021/04/04 08:02:10;;;;;;;22.48;9.07;;;10.00;97.30;;;;;;5057570;28;20475;-77
2021/04/04 08:04:45;;;;;;;23.27;9.00;;;10.20;98.60;;;;;;5074818;28;20056;-76
2021/04/04 08:07:32;;;;;;;18.17;12.52;;;10.50;96.70;;;;;;5075348;28;20016;-75
2021/04/04 08:10:07;;;;;;;35.40;10.63;;;10.50;97.20;;;;;;5061965;28;20032;-76
2021/04/04 08:12:54;;;;;;;15.50;8.02;;;10.80;96.00;;;;;;5053118;28;20032;-77
2021/04/04 08:15:27;;;;;;;24.13;10.07;;;10.70;94.70;;;;;;5054795;28;20075;-76
2021/04/04 08:17:55;;;;;;;19.55;8.75;;;10.70;96.10;;;;;;5060262;28;20021;-77
2021/04/04 08:20:25;;;;;;;17.17;8.38;;;10.80;94.10;;;;;;5046487;28;20044;-74
2021/04/04 08:23:05;;;;;;;18.75;8.40;;;10.90;94.10;;;;;;5051911;28;20075;-74
2021/04/04 08:25:35;;;;;;;;;;;11.10;93.30;;;;;;5053449;28;20079;-74
2021/04/04 08:28:31;;;;;;;16.92;7.53;;;11.30;92.50;;;;;;5054274;28;19905;-74
2021/04/04 08:31:14;;;;;;;29.00;7.70;;;12.10;93.00;;;;;;5054507;28;20025;-74
2021/04/04 08:33:56;;;;;;;13.13;7.72;;;12.30;91.30;;;;;;5055750;28;20029;-74
2021/04/04 08:36:27;;;;;;;10.05;7.22;;;12.30;91.70;;;;;;5057525;28;20025;-74
2021/04/04 08:38:57;;;;;;;14.88;8.05;;;12.50;91.30;;;;;;5053529;28;20536;-74
2021/04/04 08:41:25;;;;;;;19.45;7.85;;;12.10;87.30;;;;;;5052013;28;20029;-74
2021/04/04 08:44:08;;;;;;;12.52;7.80;;;11.80;90.90;;;;;;5053359;28;20028;-74
2021/04/04 08:46:51;;;;;;;10.27;7.10;;;11.80;90.80;;;;;;5052816;28;20028;-74
2021/04/04 08:49:18;;;;;;;12.95;7.40;;;12.00;90.30;;;;;;5054160;28;20516;-74
2021/04/04 08:51:51;;;;;;;20.02;8.45;;;12.90;91.30;;;;;;5054168;28;20171;-74
2021/04/04 08:54:20;;;;;;;15.23;7.50;;;12.90;85.30;;;;;;5053892;28;20040;-74
2021/04/04 08:56:48;;;;;;;13.85;7.57;;;13.40;84.90;;;;;;5053366;28;20029;-74
2021/04/04 08:59:20;;;;;;;12.35;7.50;;;15.40;78.40;;;;;;5053760;28;20479;-72
2021/04/04 09:01:51;;;;;;;10.27;6.30;;;18.30;67.00;;;;;;5053714;28;20112;-72
2021/04/04 09:04:18;;;;;;;10.73;7.28;;;21.50;55.50;;;;;;5052593;28;20029;-72
2021/04/04 09:06:44;;;;;;;9.00;6.28;;;19.20;56.90;;;;;;5054008;28;20419;-72
2021/04/04 09:09:33;;;;;;;13.00;6.45;;;21.70;54.40;;;;;;5052338;28;20452;-72
2021/04/04 09:11:59;;;;;;;12.95;6.20;;;21.60;50.40;;;;;;5052441;28;20063;-72
2021/04/04 09:14:26;;;;;;;15.40;6.00;;;19.10;56.40;;;;;;5053583;28;20048;-72
2021/04/04 09:16:56;;;;;;;12.48;5.97;;;20.30;56.00;;;;;;5053366;28;20040;-72
2021/04/04 09:19:33;;;;;;;15.38;7.13;;;22.30;51.60;;;;;;5053469;28;20096;-72
2021/04/04 09:22:05;;;;;;;9.15;6.13;;;23.30;50.50;;;;;;5053521;28;20077;-72
2021/04/04 09:24:54;;;;;;;19.35;6.72;;;23.10;48.80;;;;;;5053373;28;20032;-72
2021/04/04 09:27:23;;;;;;;9.85;6.40;;;24.00;46.60;;;;;;5053409;28;20033;-72
2021/04/04 09:29:51;;;;;;;8.48;6.07;;;25.80;44.30;;;;;;5053268;28;20028;-72
2021/04/04 09:32:42;;;;;;;9.68;6.30;;;24.90;42.90;;;;;;5053231;28;20029;-73
2021/04/04 09:35:12;;;;;;;;;;;25.50;43.10;;;;;;5048627;28;20032;-73
2021/04/04 09:37:39;;;;;;;9.93;5.88;;;24.80;42.40;;;;;;5048716;28;19909;-72
2021/04/04 09:40:06;;;;;;;10.35;6.28;;;26.00;42.20;;;;;;5055383;28;20500;-73
2021/04/04 09:42:32;;;;;;;12.43;5.72;;;25.50;44.40;;;;;;5059442;28;20123;-73
2021/04/04 09:45:13;;;;;;;16.13;5.93;;;25.30;44.20;;;;;;5056091;28;20040;-72
2021/04/04 09:47:40;;;;;;;14.55;6.45;;;26.20;42.50;;;;;;5064419;28;20344;-73
2021/04/04 09:50:28;;;;;;;12.40;5.78;;;26.50;41.30;;;;;;5059552;28;20068;-73
2021/04/04 09:52:55;;;;;;;12.18;5.97;;;26.30;41.40;;;;;;5058135;28;20512;-73
2021/04/04 09:55:26;;;;;;;15.15;5.70;;;24.50;42.90;;;;;;5055433;28;20174;-73
2021/04/04 09:57:56;;;;;;;18.02;6.20;;;25.50;45.10;;;;;;5063713;28;20032;-73
2021/04/04 10:00:27;;;;;;;27.48;8.02;;;24.90;44.70;;;;;;5054917;28;20025;-73
2021/04/04 10:02:56;;;;;;;17.35;5.78;;;26.00;42.60;;;;;;5057117;28;20490;-73
2021/04/04 10:05:37;;;;;;;13.25;6.00;;;26.30;40.00;;;;;;5061566;28;20028;-73
2021/04/04 10:08:29;;;;;;;8.18;6.13;;;25.70;43.00;;;;;;5055804;28;20032;-73
2021/04/04 10:10:57;;;;;;;10.60;5.55;;;26.40;40.10;;;;;;5057968;28;20063;-72
2021/04/04 10:13:29;;;;;;;10.40;5.85;;;23.80;42.70;;;;;;5057077;28;20013;-73
2021/04/04 10:15:56;;;;;;;14.90;7.50;;;23.00;44.90;;;;;;5056163;28;20470;-73
2021/04/04 10:18:23;;;;;;;10.55;5.78;;;23.50;45.00;;;;;;5055156;28;20027;-73
2021/04/04 10:20:54;;;;;;;9.10;6.13;;;24.50;43.00;;;;;;5039869;28;20036;-73
2021/04/04 10:23:34;;;;;;;8.45;5.75;;;23.90;44.20;;;;;;5046025;28;20021;-73
2021/04/04 10:26:09;;;;;;;11.27;6.05;;;25.50;42.70;;;;;;5062226;28;20024;-74
2021/04/04 10:29:05;;;;;;;11.00;6.68;;;27.20;41.80;;;;;;5062372;28;20147;-74
2021/04/04 10:31:48;;;;;;;8.75;5.22;;;23.90;42.80;;;;;;5056964;28;20064;-74
2021/04/04 10:34:14;;;;;;;8.25;5.63;;;24.70;45.30;;;;;;5057869;28;20108;-74
2021/04/04 10:36:39;;;;;;;8.45;5.13;;;25.30;42.10;;;;;;5064732;28;20100;-74
2021/04/04 10:39:20;;;;;;;10.73;5.55;;;23.60;44.80;;;;;;5056284;28;20025;-73
2021/04/04 10:41:47;;;;;;;13.27;7.00;;;27.90;42.90;;;;;;5057929;28;20095;-73
2021/04/04 10:44:22;;;;;;;7.20;6.10;;;30.10;37.90;;;;;;5054038;28;20074;-73
2021/04/04 10:46:48;;;;;;;7.75;5.85;;;29.60;38.70;;;;;;5063504;28;20497;-74
2021/04/04 10:49:14;;;;;;;11.95;5.70;;;30.10;35.50;;;;;;5065536;28;20028;-74
2021/04/04 10:51:41;;;;;;;9.90;4.78;;;28.50;34.80;;;;;;5058616;28;20036;-74
2021/04/04 10:54:07;;;;;;;15.02;6.60;;;27.00;37.40;;;;;;5063573;28;20111;-74
2021/04/04 10:56:35;;;;;;;8.10;5.53;;;28.10;37.60;;;;;;5057720;28;20017;-74
2021/04/04 10:59:03;;;;;;;10.00;6.00;;;28.40;34.80;;;;;;5052851;28;20021;-74
2021/04/04 11:01:33;;;;;;;11.27;5.97;;;28.70;36.20;;;;;;5058008;28;20028;-74
2021/04/04 11:04:00;;;;;;;6.18;5.50;;;26.80;39.50;;;;;;5061468;28;20141;-74
2021/04/04 11:06:27;;;;;;;6.15;5.55;;;30.90;36.60;;;;;;5056777;28;20481;-74
2021/04/04 11:08:53;;;;;;;6.93;4.25;;;33.70;35.20;;;;;;5061299;28;20478;-74
2021/04/04 11:11:19;;;;;;;8.48;4.72;;;29.70;35.10;;;;;;5049420;28;20028;-74
2021/04/04 11:13:52;;;;;;;25.58;5.63;;;26.20;39.20;;;;;;5050867;28;20021;-74
2021/04/04 11:16:20;;;;;;;45.42;6.88;;;23.10;46.20;;;;;;5049110;28;20024;-74
2021/04/04 11:18:50;;;;;;;13.02;5.03;;;21.40;47.40;;;;;;5061527;28;20025;-74
2021/04/04 11:21:30;;;;;;;15.55;6.07;;;28.70;40.60;;;;;;5056537;28;20060;-74
2021/04/04 11:23:56;;;;;;;25.98;5.75;;;33.20;35.60;;;;;;5052375;28;20513;-74
2021/04/04 11:26:34;;;;;;;8.98;5.80;;;34.80;34.50;;;;;;5064685;28;20104;-74
2021/04/04 11:29:20;;;;;;;28.67;6.25;;;35.80;33.10;;;;;;5053698;28;20362;-74
2021/04/04 11:31:51;;;;;;;8.82;5.95;;;30.30;34.40;;;;;;5051202;28;20029;-74
2021/04/04 11:34:40;;;;;;;22.65;7.25;;;30.20;37.90;;;;;;5050747;28;20169;-74
2021/04/04 11:37:12;;;;;;;10.63;6.70;;;32.40;35.20;;;;;;5050528;28;20033;-74
2021/04/04 11:39:38;;;;;;;8.25;5.88;;;34.30;33.90;;;;;;5050492;28;20025;-73
2021/04/04 11:42:05;;;;;;;76.15;10.48;;;34.50;31.90;;;;;;5070129;28;20033;-73
2021/04/04 11:44:42;;;;;;;9.45;5.07;;;34.10;30.60;;;;;;5070985;28;20028;-73
2021/04/04 11:47:17;;;;;;;62.05;7.28;;;32.90;32.30;;;;;;5070583;28;20055;-73
2021/04/04 11:49:46;;;;;;;14.63;6.30;;;31.00;34.90;;;;;;5071041;28;20043;-73
2021/04/04 11:52:12;;;;;;;7.05;4.90;;;31.10;35.90;;;;;;5069249;28;20029;-73
2021/04/04 11:54:50;;;;;;;7.28;4.45;;;31.10;35.40;;;;;;5070246;28;20032;-73
2021/04/04 11:57:21;;;;;;;8.10;4.90;;;27.70;37.60;;;;;;5070970;28;20052;-73
2021/04/04 11:59:51;;;;;;;9.85;5.75;;;27.00;40.30;;;;;;5071135;28;20052;-73
2021/04/04 12:02:19;;;;;;;11.25;5.22;;;32.00;37.70;;;;;;5071106;28;20036;-73
2021/04/04 12:04:51;;;;;;;9.43;5.20;;;34.70;33.50;;;;;;5069942;28;20387;-73
2021/04/04 12:07:18;;;;;;;43.03;6.07;;;34.50;32.80;;;;;;5070898;28;20036;-73
2021/04/04 12:09:46;;;;;;;8.85;5.97;;;35.40;31.90;;;;;;5060087;28;20115;-73
2021/04/04 12:12:13;;;;;;;8.35;5.00;;;33.80;33.10;;;;;;5050812;28;20490;-73
2021/04/04 12:14:53;;;;;;;11.60;5.78;;;32.70;33.80;;;;;;5050904;28;20040;-73
2021/04/04 12:17:21;;;;;;;6.45;5.10;;;33.30;32.70;;;;;;5050771;28;20112;-74
2021/04/04 12:19:47;;;;;;;7.88;4.93;;;34.00;31.70;;;;;;5051094;28;20052;-74
2021/04/04 12:22:15;;;;;;;8.77;4.32;;;32.20;30.30;;;;;;5050778;28;20422;-74
2021/04/04 12:27:14;;;;;;;8.80;4.82;;;25.90;43.60;;;;;;5103290;27;20400;-77
2021/04/04 12:29:47;;;;;;;8.20;4.57;;;32.10;33.90;;;;;;5107995;28;20061;-78
2021/04/04 12:32:22;;;;;;;7.25;5.03;;;33.00;34.00;;;;;;5099814;28;20024;-78
2021/04/04 12:34:54;;;;;;;9.40;4.18;;;27.50;37.80;;;;;;5108587;28;20518;-78
2021/04/04 12:37:23;;;;;;;6.60;4.88;;;26.30;40.30;;;;;;5107980;28;20035;-78
2021/04/04 12:39:50;;;;;;;6.97;4.40;;;31.80;37.50;;;;;;5108449;28;20080;-78
2021/04/04 12:42:20;;;;;;;6.22;5.28;;;33.60;33.60;;;;;;5108419;28;20030;-77
2021/04/04 12:44:48;;;;;;;12.05;5.15;;;32.00;32.80;;;;;;5107971;28;20058;-77
2021/04/04 12:47:18;;;;;;;11.75;4.82;;;32.00;35.50;;;;;;5108739;28;20392;-77
2021/04/04 12:49:51;;;;;;;;;;;28.60;35.70;;;;;;5108681;28;20031;-78
2021/04/04 12:52:42;;;;;;;5.88;4.30;;;25.60;41.00;;;;;;5108148;28;19960;-77
2021/04/04 12:55:31;;;;;;;6.88;4.72;;;25.70;41.00;;;;;;5104362;28;20391;-78
2021/04/04 12:58:04;;;;;;;8.25;4.70;;;23.10;42.20;;;;;;5108254;28;20051;-78
2021/04/04 13:00:33;;;;;;;80.70;8.65;;;26.90;41.10;;;;;;5108014;28;20392;-77
2021/04/04 13:03:05;;;;;;;8.70;5.00;;;29.40;36.20;;;;;;5108233;28;20488;-77
2021/04/04 13:05:40;;;;;;;4.72;4.07;;;31.90;35.70;;;;;;5108356;28;20496;-77
2021/04/04 13:08:10;;;;;;;11.57;4.50;;;30.10;33.20;;;;;;5100558;28;20092;-77
2021/04/04 13:10:37;;;;;;;5.57;3.95;;;29.50;36.10;;;;;;5107379;28;20022;-77
2021/04/04 13:13:17;;;;;;;7.20;4.72;;;30.60;34.60;;;;;;5093010;28;20033;-77
2021/04/04 13:15:44;;;;;;;4.88;3.80;;;31.20;33.50;;;;;;5077189;28;20060;-77
2021/04/04 13:18:26;;;;;;;6.43;4.00;;;28.30;35.40;;;;;;5074842;28;20028;-77